createdAt,value
2018-02-15T00:02:08.802Z,58.90
2018-02-15T00:04:35.761Z,58.90
2018-02-15T00:07:01.978Z,58.90
2018-02-15T00:09:28.174Z,59.60
2018-02-15T00:11:55.101Z,59.40
2018-02-15T00:14:22.752Z,59.40
2018-02-15T00:16:48.941Z,60.20
2018-02-15T00:19:15.156Z,58.80
2018-02-15T00:21:42.105Z,59.30
2018-02-15T00:24:08.282Z,60.50
2018-02-15T00:26:34.510Z,58.80
2018-02-15T00:29:01.459Z,58.80
2018-02-15T00:31:27.976Z,58.80
2018-02-15T00:33:54.926Z,58.80
2018-02-15T00:36:21.113Z,60.70
2018-02-15T00:38:48.007Z,59.40
2018-02-15T00:41:14.253Z,59.20
2018-02-15T00:43:40.432Z,58.90
2018-02-15T00:46:07.363Z,59.10
2018-02-15T00:48:34.661Z,58.80
2018-02-15T00:51:00.833Z,59.20
2018-02-15T00:53:27.769Z,59.30
2018-02-15T00:55:53.934Z,58.60
2018-02-15T00:58:20.126Z,59.10
2018-02-15T01:00:47.038Z,58.90
2018-02-15T01:03:13.209Z,59.00
2018-02-15T01:05:40.171Z,59.30
2018-02-15T01:08:06.450Z,59.20
2018-02-15T01:10:33.388Z,58.80
2018-02-15T01:12:59.581Z,59.30
2018-02-15T01:15:25.771Z,59.20
2018-02-15T01:17:52.334Z,58.80
2018-02-15T01:20:18.880Z,58.80
2018-02-15T01:22:45.038Z,58.80
2018-02-15T01:25:11.579Z,58.80
2018-02-15T01:27:38.147Z,58.90
2018-02-15T01:30:05.062Z,59.40
2018-02-15T01:32:31.202Z,58.80
2018-02-15T01:34:57.405Z,58.80
2018-02-15T01:37:23.614Z,58.80
2018-02-15T01:39:49.799Z,58.90
2018-02-15T01:42:16.006Z,58.90
2018-02-15T01:44:42.569Z,58.80
2018-02-15T01:47:08.740Z,58.90
2018-02-15T01:49:47.134Z,59.30
2018-02-15T01:52:14.057Z,59.40
2018-02-15T01:54:40.231Z,58.80
2018-02-15T01:57:06.416Z,59.30
2018-02-15T01:59:33.372Z,59.40
2018-02-15T02:02:00.329Z,59.40
2018-02-15T02:04:26.612Z,59.00
2018-02-15T02:06:52.783Z,58.90
2018-02-15T02:11:46.874Z,58.90
2018-02-15T02:14:13.809Z,59.60
2018-02-15T02:16:40.730Z,59.40
2018-02-15T02:19:06.952Z,58.80
2018-02-15T02:21:33.100Z,58.80
2018-02-15T02:23:59.317Z,58.80
2018-02-15T02:26:25.968Z,58.80
2018-02-15T02:28:52.119Z,58.80
2018-02-15T02:31:19.044Z,59.40
2018-02-15T02:33:45.208Z,58.80
2018-02-15T02:36:11.405Z,58.80
2018-02-15T02:38:38.368Z,60.00
2018-02-15T02:41:04.904Z,58.80
2018-02-15T02:43:31.815Z,59.40
2018-02-15T02:45:58.005Z,58.90
2018-02-15T02:48:24.154Z,58.90
2018-02-15T02:50:50.328Z,58.90
2018-02-15T02:53:17.274Z,59.40
2018-02-15T02:55:44.222Z,58.70
2018-02-15T02:58:11.123Z,59.30
2018-02-15T03:00:37.304Z,58.80
2018-02-15T03:03:03.482Z,58.80
2018-02-15T03:05:30.065Z,58.80
2018-02-15T03:07:56.980Z,59.40
2018-02-15T03:10:23.147Z,58.80
2018-02-15T03:12:49.407Z,58.80
2018-02-15T03:15:15.601Z,58.80
2018-02-15T03:17:41.748Z,58.80
2018-02-15T03:20:07.916Z,58.90
2018-02-15T03:22:34.092Z,58.80
2018-02-15T03:25:00.239Z,58.80
2018-02-15T03:27:26.417Z,58.80
2018-02-15T03:29:53.366Z,59.00
2018-02-15T03:32:20.354Z,59.10
2018-02-15T03:34:46.531Z,58.80
2018-02-15T03:37:12.720Z,58.60
2018-02-15T03:39:38.883Z,58.90
2018-02-15T03:42:05.081Z,58.90
2018-02-15T03:44:31.271Z,58.50
2018-02-15T03:46:57.423Z,58.90
2018-02-15T03:49:23.630Z,59.40
2018-02-15T03:51:49.810Z,57.80
2018-02-15T03:54:15.996Z,58.00
2018-02-15T03:56:42.157Z,58.00
2018-02-15T03:59:08.304Z,57.50
2018-02-15T04:01:34.461Z,57.20
2018-02-15T04:04:01.058Z,57.50
2018-02-15T04:06:27.337Z,57.60
2018-02-15T04:08:53.551Z,57.60
2018-02-15T04:11:20.469Z,57.90
2018-02-15T04:13:46.788Z,57.40
2018-02-15T04:16:13.007Z,57.60
2018-02-15T04:18:39.183Z,57.80
2018-02-15T04:21:06.112Z,57.70
2018-02-15T04:23:32.426Z,57.70
2018-02-15T04:25:58.610Z,57.60
2018-02-15T04:28:24.796Z,57.50
2018-02-15T04:30:50.930Z,57.50
2018-02-15T04:33:17.073Z,57.20
2018-02-15T04:35:43.645Z,56.40
2018-02-15T04:38:10.180Z,56.50
2018-02-15T04:40:36.362Z,56.90
2018-02-15T04:43:03.312Z,57.30
2018-02-15T04:45:29.896Z,56.30
2018-02-15T04:47:56.798Z,56.30
2018-02-15T04:50:23.715Z,57.00
2018-02-15T04:52:50.649Z,56.30
2018-02-15T04:55:16.850Z,56.30
2018-02-15T04:57:43.050Z,56.90
2018-02-15T05:00:09.986Z,57.10
2018-02-15T05:02:36.548Z,56.60
2018-02-15T05:05:02.805Z,56.80
2018-02-15T05:07:29.379Z,56.00
2018-02-15T05:09:56.329Z,56.80
2018-02-15T05:12:23.255Z,56.90
2018-02-15T05:14:49.838Z,56.40
2018-02-15T05:17:16.010Z,56.70
2018-02-15T05:19:42.244Z,56.40
2018-02-15T05:22:08.426Z,56.30
2018-02-15T05:24:34.592Z,56.20
2018-02-15T05:27:00.874Z,56.30
2018-02-15T05:31:56.529Z,56.40
2018-02-15T05:34:23.728Z,56.50
2018-02-15T05:36:50.025Z,56.40
2018-02-15T05:39:16.220Z,56.40
2018-02-15T05:41:42.605Z,56.60
2018-02-15T05:44:08.900Z,56.40
2018-02-15T05:46:35.124Z,56.30
2018-02-15T05:49:01.369Z,56.50
2018-02-15T05:51:27.675Z,56.80
2018-02-15T05:53:53.939Z,56.90
2018-02-15T05:56:20.881Z,56.80
2018-02-15T05:58:47.259Z,56.80
2018-02-15T06:01:13.502Z,56.70
2018-02-15T06:03:42.117Z,57.00
2018-02-15T06:06:08.628Z,56.70
2018-02-15T06:08:35.284Z,56.20
2018-02-15T06:11:01.519Z,56.60
2018-02-15T06:13:28.768Z,56.20
2018-02-15T06:15:56.113Z,57.20
2018-02-15T06:18:22.364Z,56.30
2018-02-15T06:20:48.785Z,55.90
2018-02-15T06:23:15.041Z,56.30
2018-02-15T06:25:41.564Z,56.50
2018-02-15T06:28:08.145Z,56.50
2018-02-15T06:30:34.510Z,56.50
2018-02-15T06:33:01.766Z,57.20
2018-02-15T06:35:28.000Z,56.90
2018-02-15T06:37:54.216Z,57.20
2018-02-15T06:40:20.498Z,57.30
2018-02-15T06:42:46.885Z,57.00
2018-02-15T06:45:13.083Z,57.10
2018-02-15T06:47:39.381Z,57.50
2018-02-15T06:50:05.565Z,59.00
2018-02-15T06:52:32.510Z,62.50
2018-02-15T06:54:59.489Z,64.20
2018-02-15T06:57:26.041Z,65.70
2018-02-15T06:59:52.231Z,66.80
2018-02-15T07:02:18.407Z,69.10
2018-02-15T07:04:44.624Z,70.10
2018-02-15T07:07:10.832Z,71.60
2018-02-15T07:09:37.017Z,73.90
2018-02-15T07:12:03.956Z,75.00
2018-02-15T07:14:30.180Z,76.30
2018-02-15T07:16:56.776Z,75.20
2018-02-15T07:19:22.949Z,75.30
2018-02-15T07:21:49.840Z,77.30
2018-02-15T07:24:16.014Z,76.30
2018-02-15T07:26:42.266Z,77.20
2018-02-15T07:29:09.195Z,78.30
2018-02-15T07:31:35.396Z,78.60
2018-02-15T07:34:01.576Z,78.70
2018-02-15T07:36:28.581Z,79.30
2018-02-15T07:38:55.119Z,79.30
2018-02-15T07:41:21.648Z,79.90
2018-02-15T07:43:47.898Z,80.00
2018-02-15T07:46:14.062Z,79.90
2018-02-15T07:48:40.975Z,80.00
2018-02-15T07:51:07.201Z,81.00
2018-02-15T07:53:33.410Z,81.90
2018-02-15T07:55:59.644Z,81.90
2018-02-15T07:58:25.841Z,81.90
2018-02-15T08:00:52.015Z,81.90
2018-02-15T08:03:18.186Z,81.90
2018-02-15T08:05:44.389Z,82.00
2018-02-15T08:08:11.319Z,82.60
2018-02-15T08:10:37.497Z,82.00
2018-02-15T08:13:03.687Z,82.00
2018-02-15T08:15:30.615Z,82.90
2018-02-15T08:17:56.759Z,81.90
2018-02-15T08:20:23.717Z,82.60
2018-02-15T08:22:49.939Z,82.00
2018-02-15T08:25:16.814Z,82.60
2018-02-15T08:27:42.980Z,86.40
2018-02-15T08:30:09.172Z,87.00
2018-02-15T08:32:35.460Z,79.70
2018-02-15T08:35:02.378Z,81.00
2018-02-15T08:37:28.580Z,81.40
2018-02-15T08:39:54.813Z,82.20
2018-02-15T08:42:21.394Z,82.00
2018-02-15T08:44:47.951Z,82.10
2018-02-15T08:47:14.897Z,82.70
2018-02-15T08:49:41.829Z,82.60
2018-02-15T08:52:08.758Z,82.70
2018-02-15T08:54:35.695Z,82.20
2018-02-15T08:57:01.869Z,82.20
2018-02-15T08:59:28.786Z,82.70
2018-02-15T09:01:55.722Z,82.20
2018-02-15T09:04:22.634Z,82.20
2018-02-15T09:06:48.831Z,82.10
2018-02-15T09:09:15.793Z,82.80
2018-02-15T09:11:42.332Z,82.40
2018-02-15T09:14:08.866Z,82.80
2018-02-15T09:16:35.072Z,83.40
2018-02-15T09:19:02.815Z,83.50
2018-02-15T09:21:29.021Z,83.00
2018-02-15T09:23:55.582Z,82.50
2018-02-15T09:26:22.553Z,82.70
2018-02-15T09:28:49.129Z,82.20
2018-02-15T09:31:15.538Z,82.60
2018-02-15T09:33:41.744Z,82.30
2018-02-15T09:36:08.638Z,83.10
2018-02-15T09:38:34.811Z,82.70
2018-02-15T09:41:01.800Z,83.00
2018-02-15T09:43:27.979Z,82.40
2018-02-15T09:45:54.205Z,82.50
2018-02-15T09:48:20.754Z,82.70
2018-02-15T09:50:47.714Z,82.90
2018-02-15T09:53:14.632Z,83.00
2018-02-15T09:55:40.834Z,82.50
2018-02-15T09:58:06.983Z,82.50
2018-02-15T10:00:33.170Z,82.50
2018-02-15T10:02:59.417Z,82.50
2018-02-15T10:05:25.626Z,83.20
2018-02-15T10:07:51.839Z,83.20
2018-02-15T10:10:18.431Z,82.50
2018-02-15T10:12:44.981Z,82.50
2018-02-15T10:15:11.519Z,82.50
2018-02-15T10:17:38.432Z,82.60
2018-02-15T10:20:04.592Z,82.90
2018-02-15T10:22:31.568Z,84.20
2018-02-15T10:24:58.133Z,83.20
2018-02-15T10:27:25.385Z,89.50
2018-02-15T10:29:51.716Z,83.60
2018-02-15T10:32:17.909Z,81.90
2018-02-15T10:34:44.096Z,81.50
2018-02-15T10:37:10.274Z,85.90
2018-02-15T10:39:36.482Z,80.50
2018-02-15T10:42:03.451Z,79.50
2018-02-15T10:44:29.774Z,79.60
2018-02-15T10:46:55.962Z,80.10
2018-02-15T10:49:22.268Z,80.40
2018-02-15T10:51:48.438Z,81.00
2018-02-15T10:54:15.397Z,82.20
2018-02-15T10:56:42.388Z,82.60
2018-02-15T10:59:08.593Z,82.70
2018-02-15T11:01:40.874Z,82.70
2018-02-15T11:04:13.280Z,82.60
2018-02-15T11:06:39.469Z,82.70
2018-02-15T11:09:05.762Z,82.70
2018-02-15T11:11:32.713Z,83.30
2018-02-15T11:13:59.623Z,82.70
2018-02-15T11:16:25.801Z,82.80
2018-02-15T11:18:52.756Z,83.30
2018-02-15T11:21:18.941Z,83.30
2018-02-15T11:23:45.117Z,83.00
2018-02-15T11:26:11.345Z,82.90
2018-02-15T11:28:37.529Z,82.90
2018-02-15T11:31:05.239Z,83.50
2018-02-15T11:33:31.471Z,82.90
2018-02-15T11:36:00.134Z,82.90
2018-02-15T11:38:27.095Z,83.50
2018-02-15T11:40:53.336Z,83.50
2018-02-15T11:43:20.630Z,83.60
2018-02-15T11:45:47.063Z,83.30
2018-02-15T11:48:13.302Z,83.10
2018-02-15T11:50:39.629Z,82.90
2018-02-15T11:53:05.833Z,82.90
2018-02-15T11:55:32.160Z,82.90
2018-02-15T11:57:58.458Z,83.00
2018-02-15T12:00:24.807Z,82.90
2018-02-15T12:02:51.839Z,83.00
2018-02-15T12:05:19.031Z,83.00
2018-02-15T12:07:45.265Z,83.00
2018-02-15T12:10:11.527Z,82.60
2018-02-15T12:12:38.489Z,83.10
2018-02-15T12:15:05.445Z,83.50
2018-02-15T12:17:32.732Z,83.00
2018-02-15T12:19:59.039Z,83.00
2018-02-15T12:22:25.318Z,83.30
2018-02-15T12:24:51.525Z,83.00
2018-02-15T12:27:17.738Z,83.30
2018-02-15T12:29:43.970Z,83.50
2018-02-15T12:32:10.263Z,83.00
2018-02-15T12:34:37.184Z,83.60
2018-02-15T12:37:04.182Z,83.60
2018-02-15T12:39:30.423Z,83.10
2018-02-15T12:41:57.816Z,83.10
2018-02-15T12:44:24.068Z,83.10
2018-02-15T12:46:51.158Z,83.50
2018-02-15T12:51:47.791Z,83.10
2018-02-15T12:54:14.494Z,83.10
2018-02-15T12:56:40.898Z,83.10
2018-02-15T12:59:07.186Z,83.10
2018-02-15T13:01:48.323Z,83.10
2018-02-15T13:04:15.983Z,83.10
2018-02-15T13:06:42.206Z,83.10
2018-02-15T13:09:08.411Z,83.10
2018-02-15T13:11:34.643Z,83.10
2018-02-15T13:14:00.855Z,83.10
2018-02-15T13:16:39.303Z,88.10
2018-02-15T13:19:17.887Z,86.60
2018-02-15T13:21:44.068Z,81.70
2018-02-15T13:24:10.306Z,81.40
2018-02-15T13:26:36.551Z,81.00
2018-02-15T13:29:03.486Z,80.90
2018-02-15T13:31:29.722Z,81.80
2018-02-15T13:33:56.662Z,81.60
2018-02-15T13:36:23.087Z,81.90
2018-02-15T13:38:49.296Z,82.80
2018-02-15T13:41:15.502Z,82.80
2018-02-15T13:43:41.738Z,83.30
2018-02-15T13:46:07.970Z,83.30
2018-02-15T13:48:34.188Z,83.50
2018-02-15T13:51:00.499Z,84.10
2018-02-15T13:53:26.687Z,84.10
2018-02-15T13:55:52.918Z,83.90
2018-02-15T13:58:19.105Z,83.30
2018-02-15T14:00:45.290Z,84.00
2018-02-15T14:03:12.228Z,85.30
2018-02-15T14:05:38.426Z,85.20
2018-02-15T14:08:04.611Z,85.00
2018-02-15T14:10:30.903Z,84.90
2018-02-15T14:12:57.107Z,84.80
2018-02-15T14:15:23.281Z,84.60
2018-02-15T14:17:49.883Z,84.10
2018-02-15T14:20:16.085Z,84.40
2018-02-15T14:22:42.308Z,85.00
2018-02-15T14:25:08.515Z,85.70
2018-02-15T14:27:35.442Z,86.00
2018-02-15T14:30:01.636Z,85.80
2018-02-15T14:32:27.822Z,86.70
2018-02-15T14:34:54.021Z,86.90
2018-02-15T14:37:20.220Z,87.30
2018-02-15T14:39:46.387Z,87.00
2018-02-15T14:42:13.317Z,88.10
2018-02-15T14:44:39.544Z,87.50
2018-02-15T14:47:05.724Z,86.30
2018-02-15T14:49:31.952Z,85.80
2018-02-15T14:51:58.116Z,86.30
2018-02-15T14:54:24.727Z,87.20
2018-02-15T14:56:50.892Z,86.60
2018-02-15T14:59:17.540Z,86.20
2018-02-15T15:01:45.555Z,86.50
2018-02-15T15:04:11.700Z,86.50
2018-02-15T15:06:37.943Z,86.70
2018-02-15T15:09:04.150Z,87.70
2018-02-15T15:11:30.374Z,87.60
2018-02-15T15:13:56.565Z,87.70
2018-02-15T15:16:23.474Z,88.60
2018-02-15T15:18:49.660Z,88.80
2018-02-15T15:21:15.805Z,87.10
2018-02-15T15:23:41.991Z,87.20
2018-02-15T15:26:08.946Z,87.70
2018-02-15T15:28:35.202Z,87.30
2018-02-15T15:31:01.380Z,87.30
2018-02-15T15:33:30.363Z,88.90
2018-02-15T15:35:56.667Z,89.20
2018-02-15T15:38:22.862Z,89.90
2018-02-15T15:40:49.773Z,90.10
2018-02-15T15:43:15.957Z,90.20
2018-02-15T15:45:42.162Z,90.20
2018-02-15T15:48:08.403Z,90.20
2018-02-15T15:50:34.612Z,90.30
2018-02-15T15:53:01.582Z,90.10
2018-02-15T15:55:28.492Z,90.00
2018-02-15T15:57:55.446Z,90.40
2018-02-15T16:00:22.396Z,90.70
2018-02-15T16:02:48.962Z,90.20
2018-02-15T16:05:15.208Z,90.40
2018-02-15T16:07:41.462Z,90.30
2018-02-15T16:10:07.702Z,90.30
2018-02-15T16:12:33.902Z,90.60
2018-02-15T16:15:00.051Z,90.50
2018-02-15T16:17:26.283Z,90.60
2018-02-15T16:19:52.505Z,90.60
2018-02-15T16:22:18.698Z,90.50
2018-02-15T16:24:44.899Z,90.60
2018-02-15T16:27:11.629Z,90.60
2018-02-15T16:29:38.584Z,90.80
2018-02-15T16:32:04.821Z,90.70
2018-02-15T16:34:32.534Z,90.30
2018-02-15T16:36:59.088Z,90.30
2018-02-15T16:39:25.745Z,90.30
2018-02-15T16:41:52.327Z,90.00
2018-02-15T16:44:19.245Z,90.20
2018-02-15T16:55:41.432Z,88.90
2018-02-15T16:58:07.999Z,88.50
2018-02-15T17:00:34.337Z,88.90
2018-02-15T17:03:00.779Z,88.20
2018-02-15T17:05:27.738Z,88.60
2018-02-15T17:07:55.468Z,87.60
2018-02-15T17:10:21.751Z,87.30
2018-02-15T17:12:48.426Z,86.90
2018-02-15T17:15:15.241Z,86.90
2018-02-15T17:17:42.255Z,86.80
2018-02-15T17:20:09.243Z,87.80
2018-02-15T17:22:35.558Z,87.10
2018-02-15T17:25:01.906Z,87.10
2018-02-15T17:27:29.786Z,87.50
2018-02-15T17:29:56.440Z,87.40
2018-02-15T17:32:22.635Z,87.60
2018-02-15T17:34:48.882Z,87.50
2018-02-15T17:37:15.882Z,87.10
2018-02-15T17:39:42.978Z,87.50
2018-02-15T17:42:10.719Z,88.00
2018-02-15T17:44:36.931Z,87.80
2018-02-15T17:47:03.618Z,87.90
2018-02-15T17:49:30.635Z,87.40
2018-02-15T17:51:57.281Z,87.60
2018-02-15T17:54:24.026Z,87.90
2018-02-15T17:56:50.281Z,88.20
2018-02-15T17:59:16.581Z,88.10
2018-02-15T18:01:42.926Z,87.50
2018-02-15T18:04:09.193Z,87.50
2018-02-15T18:06:35.485Z,87.50
2018-02-15T18:09:02.113Z,88.00
2018-02-15T18:11:28.352Z,87.90
2018-02-15T18:13:55.411Z,87.40
2018-02-15T18:16:21.674Z,87.40
2018-02-15T18:18:48.672Z,88.00
2018-02-15T18:21:15.729Z,87.50
2018-02-15T18:23:41.930Z,87.80
2018-02-15T18:26:08.565Z,87.40
2018-02-15T18:28:34.919Z,87.70
2018-02-15T18:31:02.219Z,87.80
2018-02-15T18:33:28.575Z,87.60
2018-02-15T18:35:56.435Z,87.60
2018-02-15T18:38:23.693Z,88.00
2018-02-15T18:40:52.787Z,87.50
2018-02-15T18:43:19.757Z,87.20
2018-02-15T18:45:46.999Z,87.30
2018-02-15T18:48:13.216Z,87.80
2018-02-15T18:50:40.275Z,87.70
2018-02-15T18:53:06.527Z,87.80
2018-02-15T18:55:33.851Z,87.60
2018-02-15T18:58:00.481Z,87.70
2018-02-15T19:00:27.441Z,88.00
2018-02-15T19:02:54.109Z,87.10
2018-02-15T19:05:20.556Z,87.80
2018-02-15T19:07:46.809Z,87.50
2018-02-15T19:10:13.454Z,88.40
2018-02-15T19:12:40.407Z,89.60
2018-02-15T19:15:06.720Z,89.40
2018-02-15T19:17:32.956Z,88.80
2018-02-15T19:19:59.510Z,89.60
2018-02-15T19:22:26.106Z,89.30
2018-02-15T19:24:52.310Z,89.90
2018-02-15T19:27:18.609Z,89.80
2018-02-15T19:29:45.589Z,89.40
2018-02-15T19:32:12.532Z,88.90
2018-02-15T19:34:38.858Z,87.80
2018-02-15T19:37:05.018Z,87.40
2018-02-15T19:39:31.238Z,87.40
2018-02-15T19:41:57.438Z,87.00
2018-02-15T19:44:23.847Z,87.80
2018-02-15T19:46:50.423Z,88.30
2018-02-15T19:49:17.733Z,88.50
2018-02-15T19:51:44.684Z,89.60
2018-02-15T19:54:11.363Z,88.60
2018-02-15T19:56:37.611Z,89.00
2018-02-15T19:59:04.204Z,89.40
2018-02-15T20:01:30.414Z,90.00
2018-02-15T20:03:57.377Z,90.20
2018-02-15T20:06:23.658Z,89.80
2018-02-15T20:08:49.899Z,90.20
2018-02-15T20:11:16.197Z,90.20
2018-02-15T20:13:42.410Z,90.20
2018-02-15T20:16:09.024Z,90.30
2018-02-15T20:18:35.982Z,90.50
2018-02-15T20:21:02.938Z,90.60
2018-02-15T20:23:29.176Z,90.40
2018-02-15T20:26:01.983Z,90.00
2018-02-15T20:28:28.269Z,89.20
2018-02-15T20:30:55.431Z,89.40
2018-02-15T20:33:21.710Z,88.90
2018-02-15T20:35:47.927Z,89.40
2018-02-15T20:38:20.118Z,89.20
2018-02-15T20:40:47.160Z,89.80
2018-02-15T20:43:13.439Z,89.80
2018-02-15T20:45:39.689Z,88.70
2018-02-15T20:48:06.680Z,88.00
2018-02-15T20:50:38.928Z,87.50
2018-02-15T20:53:11.737Z,88.00
2018-02-15T20:55:43.047Z,89.20
2018-02-15T20:58:09.316Z,89.00
2018-02-15T21:00:35.596Z,88.80
2018-02-15T21:03:01.720Z,88.60
2018-02-15T21:05:28.332Z,88.50
2018-02-15T21:07:55.318Z,89.10
2018-02-15T21:10:22.237Z,89.20
2018-02-15T21:12:48.416Z,88.70
2018-02-15T21:15:15.454Z,88.50
2018-02-15T21:17:41.668Z,88.70
2018-02-15T21:20:08.848Z,89.10
2018-02-15T21:22:35.408Z,89.10
2018-02-15T21:25:02.077Z,88.70
2018-02-15T21:27:29.070Z,88.50
2018-02-15T21:29:55.249Z,88.20
2018-02-15T21:32:21.453Z,88.50
2018-02-15T21:34:49.025Z,88.30
2018-02-15T21:37:16.641Z,88.30
2018-02-15T21:39:42.854Z,88.80
2018-02-15T21:42:09.110Z,89.60
2018-02-15T21:44:36.447Z,88.80
2018-02-15T21:47:02.722Z,88.70
2018-02-15T21:49:28.929Z,89.20
2018-02-15T21:51:55.180Z,88.80
2018-02-15T21:54:21.750Z,88.80
2018-02-15T21:56:48.003Z,89.50
2018-02-15T21:59:14.311Z,89.50
2018-02-15T22:01:40.578Z,89.50
2018-02-15T22:04:06.842Z,89.70
2018-02-15T22:06:33.104Z,89.10
2018-02-15T22:09:00.075Z,89.00
2018-02-15T22:11:26.265Z,89.30
2018-02-15T22:13:52.465Z,89.40
2018-02-15T22:16:19.067Z,88.80
2018-02-15T22:18:45.631Z,88.50
2018-02-15T22:21:12.605Z,90.10
2018-02-15T22:23:39.190Z,88.60
2018-02-15T22:26:05.368Z,89.10
2018-02-15T22:28:31.608Z,89.00
2018-02-15T22:30:57.830Z,89.30
2018-02-15T22:33:24.052Z,89.10
2018-02-15T22:35:51.056Z,88.90
2018-02-15T22:38:17.309Z,88.50
2018-02-15T22:40:44.275Z,88.90
2018-02-15T22:43:10.485Z,88.70
2018-02-15T22:45:37.491Z,89.50
2018-02-15T22:48:03.770Z,89.40
2018-02-15T22:50:30.737Z,89.70
2018-02-15T22:52:56.927Z,89.40
2018-02-15T22:55:23.899Z,90.10
2018-02-15T22:57:50.101Z,90.00
2018-02-15T23:00:16.303Z,89.50
2018-02-15T23:02:42.497Z,88.90
2018-02-15T23:05:08.696Z,88.50
2018-02-15T23:07:35.313Z,89.20
2018-02-15T23:10:01.547Z,90.00
2018-02-15T23:12:27.737Z,90.10
2018-02-15T23:14:53.948Z,90.30
2018-02-15T23:17:20.185Z,90.40
2018-02-15T23:19:46.368Z,90.40
2018-02-15T23:22:12.571Z,90.40
2018-02-15T23:24:38.765Z,90.40
2018-02-15T23:27:05.366Z,90.00
2018-02-15T23:29:32.279Z,90.40
2018-02-15T23:31:58.482Z,90.30
2018-02-15T23:34:24.659Z,90.40
2018-02-15T23:36:50.869Z,90.20
2018-02-15T23:39:17.390Z,90.00
2018-02-15T23:41:43.580Z,90.30
2018-02-15T23:44:10.494Z,90.20
2018-02-15T23:46:36.666Z,90.10
2018-02-15T23:49:02.855Z,90.50
2018-02-15T23:51:29.430Z,90.10
2018-02-15T23:53:56.135Z,90.00
2018-02-15T23:56:22.331Z,90.50
2018-02-15T23:58:48.527Z,90.40
